Time;durP1;ratioP1;P1;durP2;ratioP2;P2;SDS_P1;SDS_P2;PMS_P1;PMS_P2;Temp;Humidity;BMP_temperature;BMP_pressure;BME280_temperature;BME280_humidity;BME280_pressure;Samples;Min_cycle;Max_cycle;Signal;HPM_P1;HPM_P2
2021/12/01 00:00:19;;;;;;;17.50;10.95;;;6.80;62.10;;;;;;5154663;27;20383;-71
2021/12/01 00:02:52;;;;;;;16.85;10.55;;;6.80;62.40;;;;;;5154134;27;20035;-71
2021/12/01 00:05:19;;;;;;;18.58;11.55;;;6.80;62.30;;;;;;5154500;27;20023;-72
2021/12/01 00:07:44;;;;;;;17.73;10.75;;;6.80;62.40;;;;;;5154462;27;20046;-72
2021/12/01 00:10:10;;;;;;;16.20;9.77;;;6.90;62.30;;;;;;5154196;27;20050;-71
2021/12/01 00:12:36;;;;;;;17.92;9.85;;;6.90;62.10;;;;;;5154135;27;20083;-69
2021/12/01 00:15:03;;;;;;;14.60;9.25;;;6.90;61.90;;;;;;5154350;27;20483;-72
2021/12/01 00:17:29;;;;;;;18.45;9.55;;;7.00;62.10;;;;;;5154226;27;20098;-72
2021/12/01 00:19:55;;;;;;;14.85;9.02;;;7.00;61.90;;;;;;5154429;27;20042;-73
2021/12/01 00:22:21;;;;;;;16.25;8.50;;;7.00;61.40;;;;;;5154032;27;20057;-73
2021/12/01 00:24:46;;;;;;;14.35;7.95;;;7.00;61.30;;;;;;5154292;27;20027;-73
2021/12/01 00:27:12;;;;;;;15.13;8.75;;;7.10;61.60;;;;;;5154319;27;20019;-71
2021/12/01 00:29:38;;;;;;;12.70;8.57;;;7.10;61.60;;;;;;5154069;27;20023;-73
2021/12/01 00:32:05;;;;;;;18.67;7.70;;;7.20;61.50;;;;;;5153982;27;20075;-72
2021/12/01 00:34:32;;;;;;;14.80;8.40;;;7.20;61.30;;;;;;5154092;27;20444;-72
2021/12/01 00:36:58;;;;;;;20.17;8.00;;;7.20;61.20;;;;;;5154101;27;20072;-72
2021/12/01 00:39:24;;;;;;;13.68;8.05;;;7.20;61.30;;;;;;5153933;27;20373;-71
2021/12/01 00:41:51;;;;;;;14.02;8.48;;;7.10;61.40;;;;;;5153831;27;20054;-72
2021/12/01 00:44:17;;;;;;;11.65;7.63;;;7.20;61.70;;;;;;5158011;27;20044;-72
2021/12/01 00:47:06;;;;;;;12.27;7.85;;;7.20;61.30;;;;;;5158017;27;20023;-73
2021/12/01 00:49:31;;;;;;;11.68;7.25;;;7.20;61.40;;;;;;5157411;27;20027;-71
2021/12/01 00:51:57;;;;;;;11.63;7.30;;;7.30;61.40;;;;;;5157949;27;20038;-73
2021/12/01 00:54:23;;;;;;;15.18;7.63;;;7.40;61.70;;;;;;5157873;27;20095;-72
2021/12/01 00:56:49;;;;;;;13.48;7.82;;;7.30;61.30;;;;;;5157867;27;20030;-72
2021/12/01 00:59:16;;;;;;;11.65;6.95;;;7.30;61.40;;;;;;5139192;27;20042;-72
2021/12/01 01:01:43;;;;;;;10.98;7.07;;;7.30;61.40;;;;;;5157698;27;20055;-72
2021/12/01 01:04:09;;;;;;;15.40;7.25;;;7.40;61.50;;;;;;5157719;27;20018;-71
2021/12/01 01:06:37;;;;;;;10.93;7.20;;;7.30;61.40;;;;;;5157662;27;20030;-71
2021/12/01 01:09:05;;;;;;;11.77;6.95;;;7.40;61.40;;;;;;5157875;27;20063;-71
2021/12/01 01:17:08;;;;;;;9.18;6.10;;;7.40;61.10;;;;;;5157745;27;20041;-70
2021/12/01 01:19:35;;;;;;;14.95;6.57;;;7.40;61.40;;;;;;5157533;27;20050;-72
2021/12/01 01:22:03;;;;;;;10.23;6.88;;;7.30;61.50;;;;;;5157265;27;20448;-72
2021/12/01 01:24:29;;;;;;;12.35;5.78;;;7.40;61.40;;;;;;5158013;27;20030;-73
2021/12/01 01:26:56;;;;;;;13.75;6.03;;;7.40;61.50;;;;;;5157559;27;20014;-73
2021/12/01 01:29:23;;;;;;;10.25;5.88;;;7.30;61.40;;;;;;5157262;27;20038;-72
2021/12/01 01:31:57;;;;;;;10.75;5.78;;;7.40;61.40;;;;;;5157160;27;20517;-72
2021/12/01 01:34:24;;;;;;;9.45;5.85;;;7.40;61.60;;;;;;5157181;27;20023;-71
2021/12/01 01:36:51;;;;;;;10.13;6.03;;;7.40;61.70;;;;;;5157076;27;20027;-69
2021/12/01 01:39:17;;;;;;;11.23;6.18;;;7.40;61.50;;;;;;5157009;27;20030;-71
2021/12/01 01:41:43;;;;;;;8.68;5.82;;;7.40;61.50;;;;;;5156990;27;20432;-71
2021/12/01 01:44:09;;;;;;;8.40;4.97;;;7.50;61.60;;;;;;5156754;27;20019;-69
2021/12/01 01:46:37;;;;;;;9.77;5.95;;;7.50;61.50;;;;;;5156970;27;20029;-69
2021/12/01 01:49:17;;;;;;;9.60;5.53;;;7.60;61.50;;;;;;5138052;27;20059;-70
2021/12/01 01:51:42;;;;;;;9.25;5.80;;;7.60;61.20;;;;;;5156654;27;20076;-71
2021/12/01 01:54:09;;;;;;;12.35;5.97;;;7.60;61.60;;;;;;5156163;27;20019;-70
2021/12/01 01:56:35;;;;;;;11.02;6.00;;;7.60;61.60;;;;;;5138065;27;20022;-69
2021/12/01 01:59:02;;;;;;;9.70;5.72;;;7.60;61.60;;;;;;5156553;27;20019;-71
2021/12/01 02:01:44;;;;;;;11.00;5.53;;;7.70;61.80;;;;;;5156430;27;20060;-70
2021/12/01 02:04:15;;;;;;;10.35;5.32;;;7.80;61.60;;;;;;5156703;27;20026;-70
2021/12/01 02:06:41;;;;;;;8.82;5.40;;;7.80;61.50;;;;;;5156578;27;20014;-71
2021/12/01 02:09:08;;;;;;;9.35;5.07;;;7.80;62.10;;;;;;5156396;27;20015;-71
2021/12/01 02:11:34;;;;;;;11.23;4.78;;;7.80;61.40;;;;;;5156115;27;20034;-70
2021/12/01 02:14:00;;;;;;;7.82;4.82;;;7.70;61.20;;;;;;5156332;27;20114;-72
2021/12/01 02:16:26;;;;;;;10.20;5.13;;;7.80;61.30;;;;;;5156424;27;20117;-70
2021/12/01 02:18:54;;;;;;;11.70;5.53;;;7.80;61.90;;;;;;5156511;27;20534;-71
2021/12/01 02:21:29;;;;;;;9.75;5.15;;;7.80;61.10;;;;;;5156045;27;20019;-71
2021/12/01 02:23:58;;;;;;;9.27;4.80;;;7.80;61.10;;;;;;5156180;27;20359;-70
2021/12/01 02:26:24;;;;;;;9.05;5.18;;;7.80;61.10;;;;;;5156189;27;20076;-71
2021/12/01 02:28:53;;;;;;;9.60;4.55;;;7.80;61.10;;;;;;5156070;27;20026;-69
2021/12/01 02:31:20;;;;;;;10.30;5.22;;;7.80;61.20;;;;;;5156085;27;20113;-70
2021/12/01 02:33:45;;;;;;;8.98;5.00;;;7.80;61.30;;;;;;5156018;27;20056;-70
2021/12/01 02:36:13;;;;;;;10.90;5.20;;;7.80;61.40;;;;;;5156073;27;20430;-70
2021/12/01 02:38:40;;;;;;;11.25;4.88;;;7.70;61.50;;;;;;5137301;27;20056;-71
2021/12/01 02:41:07;;;;;;;9.98;4.78;;;7.70;61.80;;;;;;5155823;27;20019;-70
2021/12/01 02:43:34;;;;;;;7.45;4.38;;;7.70;61.90;;;;;;5156097;27;20027;-69
2021/12/01 02:46:00;;;;;;;7.60;4.20;;;7.60;62.00;;;;;;5156019;27;20023;-70
2021/12/01 02:48:26;;;;;;;8.10;4.28;;;7.70;62.00;;;;;;5155836;27;20023;-71
2021/12/01 02:50:53;;;;;;;10.23;4.55;;;7.80;61.90;;;;;;5155329;27;20069;-71
2021/12/01 02:53:23;;;;;;;10.55;3.90;;;7.80;61.90;;;;;;5155631;27;20025;-72
2021/12/01 02:55:58;;;;;;;8.68;4.25;;;7.90;61.80;;;;;;5155561;27;20495;-70
2021/12/01 02:58:26;;;;;;;8.63;4.07;;;7.90;61.80;;;;;;5156296;27;20050;-69
2021/12/01 03:00:55;;;;;;;8.50;4.15;;;8.00;61.60;;;;;;5156849;27;20026;-70
2021/12/01 03:03:21;;;;;;;8.73;3.75;;;8.00;61.50;;;;;;5156336;27;20502;-72
2021/12/01 03:05:49;;;;;;;8.73;4.00;;;8.00;61.70;;;;;;5154441;27;20054;-70
2021/12/01 03:08:20;;;;;;;9.07;4.05;;;8.00;61.70;;;;;;5155148;27;20383;-69
2021/12/01 03:10:49;;;;;;;8.30;4.13;;;8.10;62.00;;;;;;5154972;27;20026;-69
2021/12/01 03:13:16;;;;;;;10.80;4.50;;;8.10;62.20;;;;;;5155047;27;20054;-70
2021/12/01 03:15:42;;;;;;;11.32;5.45;;;8.10;62.10;;;;;;5155087;27;20019;-71
2021/12/01 03:18:09;;;;;;;9.30;4.45;;;8.10;62.40;;;;;;5155149;27;20113;-72
2021/12/01 03:20:35;;;;;;;9.02;4.25;;;8.00;62.60;;;;;;5136224;27;20411;-71
2021/12/01 03:23:00;;;;;;;8.07;4.03;;;8.10;63.10;;;;;;5154894;27;20051;-72
2021/12/01 03:25:27;;;;;;;11.25;4.47;;;8.10;62.90;;;;;;5136437;27;20032;-72
2021/12/01 03:28:03;;;;;;;10.75;4.20;;;8.10;63.00;;;;;;5069747;28;20425;-72
2021/12/01 03:30:33;;;;;;;8.88;4.38;;;8.10;63.40;;;;;;5069702;28;20033;-71
2021/12/01 03:33:01;;;;;;;8.68;4.40;;;8.10;64.00;;;;;;5069803;28;20413;-74
2021/12/01 03:35:27;;;;;;;9.30;4.18;;;8.20;63.70;;;;;;5069677;28;20078;-73
2021/12/01 03:37:53;;;;;;;10.98;4.18;;;8.20;63.70;;;;;;5069462;28;20390;-73
2021/12/01 03:40:19;;;;;;;8.88;3.80;;;8.20;64.00;;;;;;5069353;28;20058;-71
2021/12/01 03:42:45;;;;;;;10.45;4.32;;;8.20;64.00;;;;;;5069097;28;20371;-73
2021/12/01 03:45:12;;;;;;;13.55;6.20;;;8.30;64.40;;;;;;5069353;28;20132;-72
2021/12/01 03:47:38;;;;;;;15.18;5.10;;;8.30;64.70;;;;;;5069239;28;20458;-71
2021/12/01 03:50:04;;;;;;;6.95;3.63;;;8.30;64.70;;;;;;5069157;28;20021;-70
2021/12/01 03:52:30;;;;;;;12.85;4.20;;;8.30;64.90;;;;;;5069127;28;20115;-71
2021/12/01 03:54:56;;;;;;;9.07;3.88;;;8.40;65.20;;;;;;5069085;28;20182;-72
2021/12/01 03:57:22;;;;;;;11.43;4.47;;;8.40;65.10;;;;;;5069052;28;20366;-71
2021/12/01 03:59:48;;;;;;;10.68;4.75;;;8.40;65.40;;;;;;5069079;28;20028;-71
2021/12/01 04:02:14;;;;;;;9.75;4.30;;;8.40;65.50;;;;;;5068973;28;20035;-72
2021/12/01 04:04:40;;;;;;;8.35;3.70;;;8.50;65.70;;;;;;5068909;28;20032;-72
2021/12/01 04:07:06;;;;;;;10.32;3.92;;;8.50;65.80;;;;;;5068916;28;20115;-72
2021/12/01 04:09:33;;;;;;;12.23;4.07;;;8.50;66.10;;;;;;5068887;28;20474;-71
2021/12/01 04:11:59;;;;;;;8.73;3.70;;;8.60;66.30;;;;;;5068880;28;20029;-70
2021/12/01 04:14:26;;;;;;;8.68;3.83;;;8.60;66.10;;;;;;5068993;28;20020;-70
2021/12/01 04:16:51;;;;;;;8.88;4.13;;;8.50;66.50;;;;;;5068756;28;20039;-71
2021/12/01 04:19:17;;;;;;;9.32;3.80;;;8.50;66.50;;;;;;5068756;28;20032;-70
2021/12/01 04:21:43;;;;;;;8.57;3.78;;;8.60;66.60;;;;;;5068584;28;20029;-70
2021/12/01 04:24:09;;;;;;;7.97;3.97;;;8.60;66.70;;;;;;5068518;28;20111;-68
2021/12/01 04:26:36;;;;;;;7.68;4.22;;;8.60;67.00;;;;;;5068306;28;20504;-71
2021/12/01 04:29:04;;;;;;;7.35;3.75;;;8.60;67.00;;;;;;5068348;28;20393;-69
2021/12/01 04:31:32;;;;;;;9.80;3.55;;;8.70;67.30;;;;;;5068956;28;20028;-71
2021/12/01 04:33:58;;;;;;;6.95;3.42;;;8.70;67.30;;;;;;5068411;28;20039;-70
2021/12/01 04:36:31;;;;;;;11.10;3.75;;;8.70;67.30;;;;;;5068364;28;20025;-71
2021/12/01 04:38:57;;;;;;;11.15;3.72;;;8.80;67.80;;;;;;5057218;28;20087;-71
2021/12/01 04:41:24;;;;;;;9.20;4.15;;;8.80;67.90;;;;;;5054686;28;20304;-70
2021/12/01 04:43:52;;;;;;;12.27;3.85;;;8.90;68.20;;;;;;5055006;28;20035;-71
2021/12/01 04:46:20;;;;;;;12.38;3.70;;;8.90;68.30;;;;;;5054793;28;20048;-70
2021/12/01 04:48:49;;;;;;;10.63;3.63;;;8.90;68.90;;;;;;5055028;28;20398;-71
2021/12/01 04:51:17;;;;;;;9.13;3.75;;;8.90;68.80;;;;;;5054632;28;20032;-69
2021/12/01 04:53:44;;;;;;;11.07;3.70;;;8.90;69.40;;;;;;5054787;28;20472;-71
2021/12/01 04:56:10;;;;;;;8.65;4.07;;;9.00;69.40;;;;;;5054683;28;20056;-70
2021/12/01 04:58:36;;;;;;;12.68;3.80;;;9.00;69.80;;;;;;5054682;28;20382;-72
2021/12/01 05:01:03;;;;;;;10.68;3.42;;;9.00;70.30;;;;;;5054536;28;20029;-71
2021/12/01 05:03:30;;;;;;;9.63;3.70;;;9.00;70.20;;;;;;5054475;28;20349;-71
2021/12/01 05:05:56;;;;;;;10.13;3.50;;;9.00;70.40;;;;;;5054533;28;20025;-70
2021/12/01 05:08:23;;;;;;;9.50;3.55;;;9.00;70.70;;;;;;5054420;28;20083;-69
2021/12/01 05:10:50;;;;;;;8.93;3.60;;;9.10;70.90;;;;;;5054465;28;20025;-71
2021/12/01 05:13:17;;;;;;;9.55;3.40;;;9.10;71.10;;;;;;5054417;28;20025;-70
2021/12/01 05:15:42;;;;;;;9.88;3.40;;;9.20;71.70;;;;;;5052978;28;20070;-70
2021/12/01 05:18:08;;;;;;;8.75;2.90;;;9.30;71.90;;;;;;5054335;28;20416;-70
2021/12/01 05:20:35;;;;;;;15.45;3.08;;;9.30;72.40;;;;;;5054320;28;20032;-71
2021/12/01 05:23:01;;;;;;;13.18;3.08;;;9.40;72.80;;;;;;5054352;28;20025;-69
2021/12/01 05:25:27;;;;;;;14.07;3.22;;;9.50;73.90;;;;;;5054680;28;20440;-71
2021/12/01 05:27:53;;;;;;;12.90;3.40;;;9.60;75.60;;;;;;5054030;28;20053;-72
2021/12/01 05:30:20;;;;;;;11.38;2.60;;;9.70;75.30;;;;;;5054392;28;20100;-71
2021/12/01 05:32:47;;;;;;;12.13;2.60;;;9.70;77.30;;;;;;5054261;28;20036;-71
2021/12/01 05:35:13;;;;;;;10.60;2.85;;;9.80;77.50;;;;;;5054194;28;20032;-70
2021/12/01 05:37:39;;;;;;;8.93;2.55;;;9.90;78.40;;;;;;5052807;28;20022;-72
2021/12/01 05:40:05;;;;;;;6.07;2.35;;;9.90;78.90;;;;;;5054018;28;20032;-72
2021/12/01 05:42:31;;;;;;;13.82;2.63;;;10.00;77.80;;;;;;5053911;28;20112;-72
2021/12/01 05:44:57;;;;;;;7.75;2.08;;;10.10;77.90;;;;;;5053996;28;20048;-72
2021/12/01 05:47:22;;;;;;;5.75;2.17;;;10.10;77.60;;;;;;5053679;28;20090;-72
2021/12/01 05:49:49;;;;;;;7.00;1.83;;;10.10;78.40;;;;;;5052875;28;20095;-72
2021/12/01 05:52:16;;;;;;;9.95;2.00;;;10.10;78.10;;;;;;5053486;28;20090;-72
2021/12/01 05:54:43;;;;;;;11.00;1.77;;;10.10;79.20;;;;;;5053640;28;20036;-73
2021/12/01 05:57:10;;;;;;;9.52;1.85;;;10.20;79.70;;;;;;5053770;28;20123;-72
2021/12/01 05:59:35;;;;;;;9.50;2.45;;;10.20;79.90;;;;;;5053804;28;20099;-73
2021/12/01 06:02:02;;;;;;;8.38;1.92;;;10.20;80.80;;;;;;5053606;28;20482;-70
2021/12/01 06:04:28;;;;;;;11.63;2.75;;;10.30;80.90;;;;;;5053578;28;20097;-71
2021/12/01 06:06:54;;;;;;;8.68;1.80;;;10.30;80.90;;;;;;5053212;28;20401;-71
2021/12/01 06:09:19;;;;;;;8.02;1.80;;;10.30;81.10;;;;;;5053470;28;20021;-70
2021/12/01 06:11:47;;;;;;;9.35;1.73;;;10.20;82.20;;;;;;5053179;28;20036;-70
2021/12/01 06:14:14;;;;;;;7.13;1.85;;;10.30;82.30;;;;;;5053340;28;20062;-71
2021/12/01 06:16:42;;;;;;;12.10;2.92;;;10.30;83.00;;;;;;5053115;28;20017;-71
2021/12/01 06:19:08;;;;;;;10.48;2.33;;;10.30;84.10;;;;;;5051818;28;20017;-71
2021/12/01 06:21:33;;;;;;;11.32;2.40;;;10.30;83.10;;;;;;5053258;28;20496;-70
2021/12/01 06:23:59;;;;;;;9.10;2.10;;;10.30;83.00;;;;;;5051665;28;20419;-71
2021/12/01 06:26:25;;;;;;;9.40;1.75;;;10.30;84.00;;;;;;5052787;28;20453;-70
2021/12/01 06:28:51;;;;;;;10.55;2.83;;;10.30;84.60;;;;;;5053135;28;20024;-71
2021/12/01 06:31:17;;;;;;;9.95;2.00;;;10.30;84.40;;;;;;5052982;28;20040;-69
2021/12/01 06:33:43;;;;;;;7.43;2.30;;;10.30;84.20;;;;;;5052875;28;20029;-70
2021/12/01 06:36:08;;;;;;;6.88;2.00;;;10.30;84.40;;;;;;5052881;28;20096;-70
2021/12/01 06:38:34;;;;;;;9.43;2.35;;;10.30;84.70;;;;;;5052966;28;20045;-69
2021/12/01 06:41:02;;;;;;;10.25;2.40;;;10.30;85.50;;;;;;5052735;28;20025;-71
2021/12/01 06:43:28;;;;;;;8.90;2.30;;;10.40;85.50;;;;;;5053284;28;20021;-70
2021/12/01 06:45:54;;;;;;;8.50;1.75;;;10.40;86.30;;;;;;5053237;28;20021;-70
2021/12/01 06:48:19;;;;;;;10.30;2.58;;;10.40;86.20;;;;;;5052817;28;20052;-72
2021/12/01 06:50:45;;;;;;;9.40;2.35;;;10.40;86.20;;;;;;5052856;28;20055;-70
2021/12/01 06:53:11;;;;;;;6.80;2.42;;;10.50;86.30;;;;;;5052913;28;20029;-70
2021/12/01 06:55:37;;;;;;;7.35;2.40;;;10.50;86.50;;;;;;5052219;28;20017;-70
2021/12/01 06:58:02;;;;;;;8.05;1.90;;;10.50;86.90;;;;;;5052599;28;20470;-71
2021/12/01 07:00:30;;;;;;;8.45;2.17;;;10.60;88.30;;;;;;5044972;28;20123;-70
2021/12/01 07:02:56;;;;;;;11.48;2.00;;;10.60;87.90;;;;;;5032652;28;20036;-71
2021/12/01 07:05:21;;;;;;;8.57;2.10;;;10.60;88.80;;;;;;5032324;28;20033;-72
2021/12/01 07:07:47;;;;;;;6.80;1.80;;;10.70;88.40;;;;;;5032228;28;20179;-72
2021/12/01 07:10:14;;;;;;;8.32;2.30;;;10.70;88.10;;;;;;5035790;28;20028;-71
2021/12/01 07:12:40;;;;;;;5.78;2.20;;;10.80;89.00;;;;;;5052251;28;20429;-70
2021/12/01 07:15:07;;;;;;;6.40;2.13;;;10.80;88.60;;;;;;5052374;28;20463;-71
2021/12/01 07:17:33;;;;;;;8.27;2.25;;;10.80;88.70;;;;;;5052110;28;20513;-70
2021/12/01 07:19:59;;;;;;;10.00;2.30;;;10.80;89.00;;;;;;5042030;28;20025;-69
2021/12/01 07:22:25;;;;;;;7.05;2.05;;;10.90;89.40;;;;;;5032366;28;20029;-79
2021/12/01 07:24:50;;;;;;;7.65;2.33;;;10.90;89.90;;;;;;5040141;28;20032;-75
2021/12/01 07:27:17;;;;;;;11.75;2.80;;;10.90;90.10;;;;;;5044263;28;20068;-78
2021/12/01 07:29:45;;;;;;;10.38;2.50;;;11.00;90.20;;;;;;5049817;28;20021;-77
2021/12/01 07:32:13;;;;;;;12.18;2.13;;;11.00;90.20;;;;;;5052636;28;20108;-79
2021/12/01 07:34:42;;;;;;;5.80;2.08;;;11.00;90.30;;;;;;5053319;28;20025;-77
2021/12/01 07:37:18;;;;;;;7.57;1.80;;;11.10;90.40;;;;;;5052040;28;20029;-74
2021/12/01 07:39:44;;;;;;;12.88;2.53;;;11.20;90.80;;;;;;5034330;28;20026;-83
2021/12/01 07:42:13;;;;;;;8.48;2.28;;;11.20;91.00;;;;;;5038646;28;20033;-83
2021/12/01 07:44:39;;;;;;;8.25;2.55;;;11.20;91.20;;;;;;5039259;28;20028;-83
2021/12/01 07:47:06;;;;;;;11.95;2.67;;;11.30;91.40;;;;;;5039451;28;20598;-82
2021/12/01 07:49:32;;;;;;;9.07;2.60;;;11.30;92.00;;;;;;5038486;28;20041;-81
2021/12/01 07:51:58;;;;;;;9.25;2.45;;;11.30;92.20;;;;;;5044585;28;20034;-81
2021/12/01 07:54:23;;;;;;;8.70;2.72;;;11.30;92.30;;;;;;5040251;28;20034;-82
2021/12/01 07:56:49;;;;;;;7.97;2.65;;;11.30;92.40;;;;;;5034308;28;20439;-79
2021/12/01 07:59:16;;;;;;;10.73;2.90;;;11.40;92.90;;;;;;5032098;28;20048;-78
2021/12/01 08:01:45;;;;;;;8.95;2.47;;;11.40;92.90;;;;;;5035948;28;20125;-81
2021/12/01 08:04:11;;;;;;;11.48;2.75;;;11.40;93.50;;;;;;5032196;28;20048;-80
2021/12/01 08:06:38;;;;;;;7.28;2.38;;;11.40;93.50;;;;;;5032071;28;20040;-79
2021/12/01 08:09:05;;;;;;;11.77;2.60;;;11.40;93.70;;;;;;5032495;28;20022;-80
2021/12/01 08:11:31;;;;;;;10.32;2.63;;;11.40;93.40;;;;;;5037383;28;20040;-79
2021/12/01 08:13:57;;;;;;;12.70;2.50;;;11.40;93.70;;;;;;5046708;28;20402;-75
2021/12/01 08:16:23;;;;;;;11.32;3.72;;;11.40;93.70;;;;;;5039863;28;20029;-79
2021/12/01 08:18:53;;;;;;;9.90;2.78;;;11.50;93.80;;;;;;5040021;28;20025;-82
2021/12/01 08:21:19;;;;;;;10.68;3.38;;;11.50;93.80;;;;;;5036126;28;20466;-83
2021/12/01 08:23:45;;;;;;;13.48;3.90;;;11.50;94.00;;;;;;5038603;28;20028;-79
2021/12/01 08:26:11;;;;;;;10.13;3.58;;;11.50;93.90;;;;;;5038689;28;20138;-80
2021/12/01 08:28:36;;;;;;;14.13;3.53;;;11.60;93.70;;;;;;5047799;28;20020;-80
2021/12/01 08:31:02;;;;;;;8.05;3.53;;;11.60;93.70;;;;;;5039370;28;20026;-80
2021/12/01 08:33:28;;;;;;;8.45;3.15;;;11.60;93.80;;;;;;5048460;28;20431;-76
2021/12/01 08:35:53;;;;;;;9.93;3.13;;;11.60;93.90;;;;;;5053632;28;20126;-76
2021/12/01 08:38:19;;;;;;;12.07;3.05;;;11.70;93.90;;;;;;5055440;28;20043;-75
2021/12/01 08:40:45;;;;;;;10.50;3.60;;;11.70;93.90;;;;;;5055476;28;20025;-78
2021/12/01 08:43:11;;;;;;;11.10;3.47;;;11.70;93.80;;;;;;5055305;28;20029;-78
2021/12/01 08:45:36;;;;;;;14.75;4.03;;;11.70;94.00;;;;;;5055128;28;20025;-80
2021/12/01 08:48:05;;;;;;;8.63;3.20;;;11.70;93.90;;;;;;5052927;28;20109;-81
2021/12/01 08:50:33;;;;;;;10.02;3.85;;;11.70;94.00;;;;;;5038700;28;20359;-79
2021/12/01 08:52:59;;;;;;;10.90;3.63;;;11.70;93.20;;;;;;5055518;28;20040;-79
2021/12/01 08:55:26;;;;;;;12.32;4.00;;;11.80;94.20;;;;;;5058482;28;20057;-81
2021/12/01 08:57:52;;;;;;;12.75;4.35;;;11.80;94.40;;;;;;5057190;28;20040;-81
2021/12/01 09:00:19;;;;;;;12.50;4.30;;;11.80;94.00;;;;;;5060472;28;20029;-79
2021/12/01 09:02:45;;;;;;;10.43;4.07;;;11.80;94.40;;;;;;5058743;28;20033;-78
2021/12/01 09:05:11;;;;;;;9.07;3.53;;;11.80;94.40;;;;;;5054781;28;20079;-78
2021/12/01 09:07:38;;;;;;;10.65;3.70;;;11.80;94.40;;;;;;5054698;28;20419;-78
2021/12/01 09:10:05;;;;;;;11.35;4.35;;;11.80;94.70;;;;;;5054290;28;20017;-76
2021/12/01 09:12:31;;;;;;;12.20;4.13;;;11.80;94.30;;;;;;5034683;28;20056;-77
2021/12/01 09:14:57;;;;;;;11.65;3.70;;;11.80;94.60;;;;;;5034495;28;20068;-78
2021/12/01 09:17:24;;;;;;;13.07;3.90;;;11.80;94.70;;;;;;5034349;28;20029;-75
2021/12/01 09:19:51;;;;;;;11.65;3.70;;;11.80;94.80;;;;;;5034461;28;20036;-75
2021/12/01 09:22:17;;;;;;;11.43;3.60;;;11.90;94.90;;;;;;5032941;28;20392;-79
2021/12/01 09:24:44;;;;;;;12.57;3.97;;;11.80;95.00;;;;;;5034351;28;20029;-76
2021/12/01 09:27:10;;;;;;;12.07;3.78;;;11.90;95.10;;;;;;5034159;28;20050;-78
2021/12/01 09:29:36;;;;;;;12.52;4.13;;;11.90;94.90;;;;;;5034418;28;20520;-77
2021/12/01 09:32:02;;;;;;;13.02;3.97;;;11.90;94.90;;;;;;5034225;28;20036;-79
2021/12/01 09:34:28;;;;;;;7.55;3.55;;;11.90;95.00;;;;;;5032595;28;20034;-76
2021/12/01 09:36:54;;;;;;;9.77;3.72;;;11.90;95.00;;;;;;5034173;28;20087;-77
2021/12/01 09:39:20;;;;;;;14.43;4.50;;;11.90;95.10;;;;;;5034204;28;20037;-75
2021/12/01 09:41:47;;;;;;;16.35;4.72;;;12.00;95.10;;;;;;5033992;28;20029;-78
2021/12/01 09:44:13;;;;;;;13.00;4.63;;;12.00;95.20;;;;;;5034015;28;20043;-78
2021/12/01 09:46:39;;;;;;;15.73;6.05;;;12.00;95.10;;;;;;5033936;28;20544;-76
2021/12/01 09:49:05;;;;;;;14.00;5.55;;;12.00;95.10;;;;;;5033934;28;20021;-79
2021/12/01 09:51:33;;;;;;;15.25;5.43;;;12.00;95.40;;;;;;5050177;28;20035;-81
2021/12/01 09:54:01;;;;;;;20.38;5.97;;;12.00;95.40;;;;;;5039289;28;20068;-81
2021/12/01 09:56:29;;;;;;;17.77;6.80;;;12.00;95.30;;;;;;5053556;28;20451;-80
2021/12/01 09:58:56;;;;;;;20.88;6.65;;;12.00;95.60;;;;;;5054309;28;20017;-80
2021/12/01 10:01:23;;;;;;;19.30;6.85;;;12.00;95.30;;;;;;5054409;28;20120;-80
2021/12/01 10:03:50;;;;;;;13.48;5.55;;;12.00;95.70;;;;;;5053090;28;20040;-77
2021/12/01 10:06:21;;;;;;;16.38;5.78;;;12.00;95.60;;;;;;5042677;28;20052;-76
2021/12/01 10:09:02;;;;;;;16.20;5.28;;;12.00;95.70;;;;;;5033656;28;20025;-76
2021/12/01 10:11:37;;;;;;;12.98;4.72;;;12.00;95.70;;;;;;5033680;28;20026;-79
2021/12/01 10:14:10;;;;;;;12.05;4.20;;;12.10;95.80;;;;;;5032185;28;20104;-76
2021/12/01 10:16:41;;;;;;;15.55;4.00;;;12.20;95.80;;;;;;5033621;28;20069;-77
2021/12/01 10:19:10;;;;;;;14.23;4.45;;;12.20;95.90;;;;;;5033080;28;20104;-79
2021/12/01 10:21:47;;;;;;;11.77;3.97;;;12.30;95.80;;;;;;5032914;28;20161;-79
2021/12/01 10:24:17;;;;;;;14.65;4.20;;;12.30;95.70;;;;;;5033412;28;20028;-78
2021/12/01 10:26:46;;;;;;;13.63;3.85;;;12.30;95.70;;;;;;5015058;28;20406;-77
2021/12/01 10:29:15;;;;;;;12.82;4.78;;;12.40;95.90;;;;;;5033300;28;20042;-76
2021/12/01 10:32:07;;;;;;;9.77;3.33;;;12.40;95.70;;;;;;5033161;28;20109;-76
2021/12/01 10:34:46;;;;;;;11.63;3.13;;;12.50;95.50;;;;;;5033453;28;20033;-76
2021/12/01 10:37:33;;;;;;;14.30;2.90;;;12.50;95.60;;;;;;5032878;28;20475;-77
2021/12/01 10:40:24;;;;;;;13.10;3.05;;;12.50;95.40;;;;;;5033134;28;20056;-80
2021/12/01 10:42:54;;;;;;;9.82;2.47;;;12.60;95.70;;;;;;5033074;28;20116;-79
2021/12/01 10:45:25;;;;;;;12.15;2.90;;;12.60;95.30;;;;;;5035682;28;20018;-83
2021/12/01 10:47:51;;;;;;;11.13;2.47;;;12.70;95.90;;;;;;5034038;28;20099;-84
2021/12/01 10:50:20;;;;;;;9.45;3.10;;;12.70;95.50;;;;;;5035963;28;20024;-81
2021/12/01 10:53:01;;;;;;;11.52;3.10;;;12.90;95.50;;;;;;5035785;28;20025;-86
2021/12/01 10:55:27;;;;;;;13.40;3.63;;;12.90;95.50;;;;;;5041413;28;20057;-89
2021/12/01 10:58:05;;;;;;;11.60;3.15;;;12.90;95.30;;;;;;5039566;28;20211;-87
2021/12/01 11:00:49;;;;;;;13.13;2.90;;;13.00;95.00;;;;;;5038075;28;20029;-88
2021/12/01 11:03:17;;;;;;;11.88;3.55;;;13.00;95.00;;;;;;5053463;28;20024;-79
2021/12/01 11:05:49;;;;;;;11.70;2.85;;;13.10;95.40;;;;;;5037451;28;20021;-81
2021/12/01 11:08:26;;;;;;;15.00;3.63;;;13.30;95.10;;;;;;5034131;28;20431;-83
2021/12/01 11:11:04;;;;;;;12.32;3.90;;;13.40;94.50;;;;;;5033576;28;20037;-82
2021/12/01 11:13:31;;;;;;;25.67;5.65;;;13.60;94.60;;;;;;5034948;28;20022;-81
2021/12/01 11:15:59;;;;;;;25.05;6.75;;;13.80;94.40;;;;;;5033491;28;20026;-83
2021/12/01 11:18:33;;;;;;;16.95;7.40;;;13.90;94.00;;;;;;5032964;28;20038;-82
2021/12/01 11:21:02;;;;;;;25.15;10.27;;;13.90;94.00;;;;;;5033806;28;20022;-83
2021/12/01 11:23:36;;;;;;;14.55;6.10;;;13.90;93.80;;;;;;5032291;28;20134;-84
2021/12/01 11:26:15;;;;;;;14.38;5.18;;;14.00;93.50;;;;;;5033501;28;20028;-85
2021/12/01 11:28:44;;;;;;;11.30;3.50;;;13.90;93.50;;;;;;5034968;28;20040;-85
2021/12/01 11:31:15;;;;;;;10.73;3.30;;;13.90;93.70;;;;;;5034925;28;20033;-84
2021/12/01 11:33:44;;;;;;;9.93;3.25;;;14.00;93.60;;;;;;5045888;28;20029;-81
2021/12/01 11:36:12;;;;;;;12.20;3.17;;;14.20;93.30;;;;;;5051031;28;20044;-81
2021/12/01 11:38:37;;;;;;;13.48;2.88;;;14.20;93.20;;;;;;5056581;28;20433;-81
2021/12/01 11:41:07;;;;;;;7.78;2.65;;;14.20;93.00;;;;;;5052886;28;20017;-79
2021/12/01 11:43:34;;;;;;;11.95;2.90;;;14.20;92.90;;;;;;5049895;28;20033;-83
2021/12/01 11:46:01;;;;;;;9.55;2.70;;;14.10;92.90;;;;;;5033393;28;20022;-81
2021/12/01 11:48:32;;;;;;;9.82;2.53;;;14.10;93.10;;;;;;5034559;28;20037;-79
2021/12/01 11:51:14;;;;;;;10.45;2.95;;;14.10;93.10;;;;;;5036442;28;20079;-78
2021/12/01 11:53:48;;;;;;;9.90;3.22;;;14.20;93.30;;;;;;5036863;28;20033;-82
2021/12/01 11:56:19;;;;;;;8.90;3.10;;;14.30;92.80;;;;;;5035000;28;20047;-78
2021/12/01 11:59:02;;;;;;;13.18;3.83;;;14.50;92.70;;;;;;5038450;28;20382;-79
2021/12/01 12:01:31;;;;;;;9.77;2.78;;;14.50;92.50;;;;;;5039838;28;20159;-79
2021/12/01 12:03:59;;;;;;;11.57;2.42;;;14.50;92.40;;;;;;5046876;28;20397;-82
2021/12/01 12:06:29;;;;;;;7.78;2.55;;;14.60;92.40;;;;;;5053440;28;20371;-78
2021/12/01 12:08:56;;;;;;;10.48;3.75;;;14.50;92.30;;;;;;5053564;28;20044;-78
2021/12/01 12:11:36;;;;;;;14.35;3.63;;;14.50;92.30;;;;;;5036003;28;20033;-78
2021/12/01 12:14:07;;;;;;;10.32;2.70;;;14.50;92.40;;;;;;5035763;28;20108;-77
2021/12/01 12:16:33;;;;;;;10.57;2.80;;;14.40;92.50;;;;;;5035914;28;20072;-76
2021/12/01 12:18:59;;;;;;;10.38;3.00;;;14.30;92.50;;;;;;5035697;28;20025;-78
2021/12/01 12:24:04;;;;;;;9.05;2.42;;;14.30;92.60;;;;;;5035882;28;20113;-75
2021/12/01 12:26:37;;;;;;;8.85;2.78;;;14.30;92.60;;;;;;5051816;28;20053;-77
2021/12/01 12:29:07;;;;;;;10.73;2.97;;;14.30;92.60;;;;;;5055739;28;20090;-76
2021/12/01 12:31:33;;;;;;;6.72;2.38;;;14.30;92.60;;;;;;5055486;28;20043;-75
2021/12/01 12:34:03;;;;;;;9.20;2.58;;;14.20;92.60;;;;;;5055665;28;20021;-75
2021/12/01 12:36:35;;;;;;;8.88;3.20;;;14.10;92.80;;;;;;5054138;28;20074;-75
2021/12/01 12:39:16;;;;;;;10.18;3.38;;;14.10;93.00;;;;;;5055693;28;20025;-79
2021/12/01 12:42:08;;;;;;;8.70;2.97;;;14.00;93.10;;;;;;5055341;28;20059;-79
2021/12/01 12:44:50;;;;;;;8.05;2.58;;;13.90;93.20;;;;;;5055648;28;20120;-78
2021/12/01 12:47:22;;;;;;;11.10;3.05;;;13.90;93.50;;;;;;5055225;28;20047;-75
2021/12/01 12:49:53;;;;;;;10.68;2.88;;;13.90;93.60;;;;;;5053601;28;20032;-79
2021/12/01 12:52:24;;;;;;;12.77;3.90;;;14.00;93.90;;;;;;5055150;28;20029;-79
2021/12/01 12:55:21;;;;;;;8.68;3.20;;;14.00;93.90;;;;;;5055180;28;20025;-81
2021/12/01 12:57:49;;;;;;;13.40;3.20;;;13.90;93.80;;;;;;5055030;28;20037;-82